Terminal Aerodrome Forecast
Issued by NWS Cleveland, OH

Home | Current Version | Previous Version | Graphics & Text | Print | Product List | Glossary Off
Versions: 1 2 3 4 5 6 7 8 9 10 11 12 13 14 15 16 17 18 19 20 21 22 23 24

000
FTUS41 KCLE 180800 AAA
TAFCLE
TAF AMD
KCLE 180859Z 1809/1912 16010KT P6SM SCT120 BKN200
     FM181700 26010KT P6SM VCSH SCT040 OVC100
     FM182200 34008KT P6SM SCT100 BKN200
     FM190100 36007KT P6SM BKN200=

USA.gov is the U.S. government's official web portal to all federal, state and local government web resources and services.